createdAt,value
2018-11-20T00:01:55.572Z,53.20
2018-11-20T00:04:52.986Z,53.60
2018-11-20T00:07:43.425Z,53.50
2018-11-20T00:10:33.654Z,53.50
2018-11-20T00:13:30.760Z,53.50
2018-11-20T00:16:20.146Z,53.50
2018-11-20T00:19:00.728Z,53.40
2018-11-20T00:21:49.255Z,53.50
2018-11-20T00:24:40.390Z,53.40
2018-11-20T00:27:26.885Z,54.00
2018-11-20T00:30:17.902Z,53.60
2018-11-20T00:33:04.818Z,53.30
2018-11-20T00:38:44.485Z,54.20
2018-11-20T00:41:29.191Z,54.50
2018-11-20T00:44:16.052Z,54.50
2018-11-20T00:47:03.064Z,54.60
2018-11-20T00:49:50.300Z,54.50
2018-11-20T00:52:26.536Z,54.50
2018-11-20T00:55:15.582Z,53.90
2018-11-20T00:57:56.923Z,54.40
2018-11-20T01:01:00.073Z,54.10
2018-11-20T01:03:48.222Z,53.40
2018-11-20T01:06:41.155Z,54.00
2018-11-20T01:09:31.277Z,54.00
2018-11-20T01:12:21.328Z,53.80
2018-11-20T01:20:37.228Z,54.20
2018-11-20T01:23:12.841Z,53.80
2018-11-20T01:26:16.562Z,54.00
2018-11-20T01:29:03.889Z,53.30
2018-11-20T01:31:55.496Z,53.70
2018-11-20T01:34:46.623Z,53.80
2018-11-20T01:37:47.148Z,53.80
2018-11-20T01:40:24.777Z,53.60
2018-11-20T01:43:15.929Z,53.90
2018-11-20T01:46:07.915Z,53.90
2018-11-20T01:49:05.180Z,53.80
2018-11-20T01:51:53.398Z,53.70
2018-11-20T01:54:56.277Z,53.20
2018-11-20T01:57:47.492Z,53.20
2018-11-20T02:00:38.495Z,53.90
2018-11-20T02:03:38.922Z,54.10
2018-11-20T02:06:30.191Z,54.40
2018-11-20T02:09:10.506Z,54.00
2018-11-20T02:11:52.700Z,54.30
2018-11-20T02:14:39.733Z,54.70
2018-11-20T02:17:38.517Z,54.30
2018-11-20T02:20:36.280Z,53.90
2018-11-20T02:23:31.190Z,54.50
2018-11-20T02:26:21.697Z,54.30
2018-11-20T02:29:09.140Z,54.30
2018-11-20T02:31:59.800Z,54.50
2018-11-20T02:35:03.460Z,54.70
2018-11-20T02:37:58.638Z,54.20
2018-11-20T02:40:46.375Z,54.50
2018-11-20T02:43:29.354Z,54.30
2018-11-20T02:46:16.703Z,53.60
2018-11-20T02:49:20.152Z,54.10
2018-11-20T02:52:23.419Z,53.20
2018-11-20T02:55:11.481Z,54.00
2018-11-20T02:57:59.868Z,53.20
2018-11-20T03:00:59.872Z,53.20
2018-11-20T03:03:46.376Z,53.20
2018-11-20T03:06:40.928Z,53.20
2018-11-20T03:09:27.412Z,53.50
2018-11-20T03:12:11.422Z,53.60
2018-11-20T03:15:04.960Z,54.00
2018-11-20T03:20:42.661Z,53.90
2018-11-20T03:23:29.515Z,53.60
2018-11-20T03:26:19.780Z,53.80
2018-11-20T03:29:45.303Z,53.50
2018-11-20T03:32:33.652Z,53.90
2018-11-20T03:35:24.166Z,53.70
2018-11-20T03:38:10.758Z,53.80
2018-11-20T03:40:52.644Z,53.40
2018-11-20T03:43:39.469Z,53.80
2018-11-20T03:46:36.492Z,54.10
2018-11-20T03:49:23.013Z,53.80
2018-11-20T03:52:16.977Z,54.20
2018-11-20T03:58:00.046Z,53.50
2018-11-20T04:00:50.776Z,53.20
2018-11-20T04:03:38.259Z,53.40
2018-11-20T04:09:19.758Z,53.50
2018-11-20T04:11:54.877Z,53.60
2018-11-20T04:14:51.755Z,53.30
2018-11-20T04:17:45.555Z,53.40
2018-11-20T04:20:37.247Z,53.80
2018-11-20T04:23:23.965Z,53.60
2018-11-20T04:26:09.304Z,53.60
2018-11-20T04:28:57.086Z,53.60
2018-11-20T04:32:13.376Z,54.00
2018-11-20T04:35:09.191Z,53.50
2018-11-20T04:37:57.326Z,53.30
2018-11-20T04:41:00.496Z,53.60
2018-11-20T04:43:46.586Z,54.00
2018-11-20T04:49:14.778Z,53.90
2018-11-20T04:52:08.804Z,53.90
2018-11-20T04:54:49.454Z,53.30
2018-11-20T04:57:36.264Z,53.10
2018-11-20T05:00:27.895Z,53.90
2018-11-20T05:06:01.536Z,53.80
2018-11-20T05:08:38.344Z,53.90
2018-11-20T05:11:38.531Z,53.90
2018-11-20T05:14:25.268Z,53.70
2018-11-20T05:17:11.845Z,53.70
2018-11-20T05:23:13.745Z,53.70
2018-11-20T05:26:00.665Z,54.00
2018-11-20T05:28:47.254Z,53.90
2018-11-20T05:31:35.426Z,53.90
2018-11-20T05:34:32.747Z,54.20
2018-11-20T05:37:27.053Z,54.40
2018-11-20T05:40:14.778Z,53.80
2018-11-20T05:43:01.759Z,53.70
2018-11-20T05:45:52.629Z,53.70
2018-11-20T05:48:43.411Z,53.40
2018-11-20T05:51:31.023Z,53.40
2018-11-20T05:54:18.874Z,53.70
2018-11-20T05:57:03.564Z,53.70
2018-11-20T06:00:07.140Z,54.30
2018-11-20T06:03:13.628Z,53.90
2018-11-20T06:06:00.652Z,54.10
2018-11-20T06:08:39.326Z,54.00
2018-11-20T06:11:25.563Z,56.60
2018-11-20T06:14:12.823Z,54.20
2018-11-20T06:16:57.741Z,54.40
2018-11-20T06:19:36.257Z,54.90
2018-11-20T06:22:18.673Z,54.70
2018-11-20T06:25:05.339Z,54.30
2018-11-20T06:27:52.832Z,54.40
2018-11-20T06:30:41.691Z,54.50
2018-11-20T06:33:32.136Z,54.60
2018-11-20T06:39:05.094Z,54.50
2018-11-20T06:41:57.546Z,54.80
2018-11-20T06:44:48.330Z,55.00
2018-11-20T06:47:28.368Z,54.70
2018-11-20T06:50:15.168Z,54.70
2018-11-20T06:53:03.324Z,54.50
2018-11-20T06:56:07.010Z,54.30
2018-11-20T06:58:54.064Z,54.30
2018-11-20T07:01:41.015Z,54.90
2018-11-20T07:04:29.258Z,54.50
2018-11-20T07:07:26.963Z,54.80
2018-11-20T07:10:06.468Z,55.00
2018-11-20T07:12:53.001Z,54.60
2018-11-20T07:15:36.385Z,54.80
2018-11-20T07:18:22.451Z,55.20
2018-11-20T07:21:04.163Z,54.80
2018-11-20T07:23:55.455Z,54.80
2018-11-20T07:26:58.585Z,54.50
2018-11-20T07:32:36.793Z,54.70
2018-11-20T07:35:23.394Z,54.90
2018-11-20T07:38:10.091Z,54.50
2018-11-20T07:40:49.957Z,54.80
2018-11-20T07:46:18.580Z,55.60
2018-11-20T07:51:44.186Z,59.20
2018-11-20T07:54:22.201Z,57.00
2018-11-20T07:57:20.081Z,56.20
2018-11-20T08:00:14.144Z,56.20
2018-11-20T08:03:01.262Z,58.20
2018-11-20T08:05:53.018Z,55.10
2018-11-20T08:08:53.009Z,55.10
2018-11-20T08:11:43.798Z,54.40
2018-11-20T08:14:30.934Z,53.90
2018-11-20T08:17:17.793Z,53.90
2018-11-20T08:20:05.997Z,54.60
2018-11-20T08:22:54.243Z,54.10
2018-11-20T08:25:41.286Z,54.10
2018-11-20T08:28:35.186Z,53.10
2018-11-20T08:31:22.666Z,53.30
2018-11-20T08:34:17.171Z,53.80
2018-11-20T08:37:13.799Z,53.70
2018-11-20T08:40:00.514Z,53.70
2018-11-20T08:42:48.863Z,53.70
2018-11-20T08:45:36.014Z,53.70
2018-11-20T08:48:22.343Z,53.70
2018-11-20T08:51:09.405Z,53.70
2018-11-20T08:56:40.461Z,53.70
2018-11-20T08:59:35.963Z,54.50
2018-11-20T09:02:36.025Z,54.70
2018-11-20T09:05:22.188Z,53.80
2018-11-20T09:08:09.194Z,53.80
2018-11-20T09:10:56.121Z,53.70
2018-11-20T09:13:59.628Z,53.80
2018-11-20T09:16:46.436Z,53.80
2018-11-20T09:19:40.513Z,53.80
2018-11-20T09:28:06.601Z,53.80
2018-11-20T09:30:53.099Z,53.90
2018-11-20T09:33:41.351Z,53.90
2018-11-20T09:36:41.190Z,53.90
2018-11-20T09:42:10.479Z,54.00
2018-11-20T09:48:09.167Z,54.00
2018-11-20T09:51:00.545Z,54.00
2018-11-20T09:53:54.722Z,54.00
2018-11-20T09:56:35.527Z,53.90
2018-11-20T09:59:29.851Z,53.60
2018-11-20T10:02:21.061Z,54.20
2018-11-20T10:05:08.533Z,53.80
2018-11-20T10:07:50.303Z,53.70
2018-11-20T10:10:45.061Z,54.60
2018-11-20T10:13:33.743Z,54.10
2018-11-20T10:16:36.969Z,54.10
2018-11-20T10:19:43.284Z,54.10
2018-11-20T10:22:31.476Z,54.10
2018-11-20T10:25:17.962Z,54.10
2018-11-20T10:28:14.794Z,54.20
2018-11-20T10:31:02.274Z,54.40
2018-11-20T10:33:49.338Z,54.20
2018-11-20T10:36:43.708Z,54.30
2018-11-20T10:39:30.372Z,54.20
2018-11-20T10:42:36.286Z,54.30
2018-11-20T10:45:22.446Z,54.30
2018-11-20T10:48:13.564Z,54.30
2018-11-20T10:50:59.742Z,54.50
2018-11-20T10:53:46.281Z,54.70
2018-11-20T10:56:34.453Z,54.70
2018-11-20T10:59:22.669Z,54.60
2018-11-20T11:02:09.508Z,54.60
2018-11-20T11:04:56.107Z,54.70
2018-11-20T11:07:50.208Z,54.70
2018-11-20T11:10:39.140Z,54.20
2018-11-20T11:13:25.800Z,54.70
2018-11-20T11:16:25.707Z,54.50
2018-11-20T11:19:12.728Z,54.20
2018-11-20T11:21:57.240Z,54.20
2018-11-20T11:25:03.956Z,54.40
2018-11-20T11:28:00.510Z,54.40
2018-11-20T11:30:51.284Z,54.30
2018-11-20T11:33:34.685Z,54.30
2018-11-20T11:36:28.932Z,54.30
2018-11-20T11:39:16.029Z,54.60
2018-11-20T11:42:02.958Z,55.00
2018-11-20T11:45:03.797Z,54.90
2018-11-20T11:47:51.355Z,54.70
2018-11-20T11:50:48.605Z,54.50
2018-11-20T11:53:35.519Z,55.10
2018-11-20T11:56:29.067Z,54.70
2018-11-20T11:59:22.538Z,54.90
2018-11-20T12:04:51.567Z,54.80
2018-11-20T12:07:38.266Z,54.80
2018-11-20T12:11:14.364Z,55.00
2018-11-20T12:14:16.995Z,55.30
2018-11-20T12:17:06.520Z,55.40
2018-11-20T12:19:57.487Z,56.00
2018-11-20T12:22:37.350Z,55.70
2018-11-20T12:25:25.261Z,55.70
2018-11-20T12:28:11.376Z,55.50
2018-11-20T12:30:58.764Z,55.80
2018-11-20T12:33:41.974Z,55.50
2018-11-20T12:36:27.384Z,56.00
2018-11-20T12:39:21.813Z,56.20
2018-11-20T12:42:14.779Z,56.10
2018-11-20T12:45:08.046Z,56.20
2018-11-20T12:48:07.518Z,55.90
2018-11-20T12:50:53.418Z,55.80
2018-11-20T12:53:57.774Z,56.20
2018-11-20T12:56:48.951Z,56.00
2018-11-20T12:59:34.976Z,55.70
2018-11-20T13:02:20.217Z,55.80
2018-11-20T13:05:05.906Z,55.70
2018-11-20T13:07:55.174Z,55.60
2018-11-20T13:10:45.560Z,56.10
2018-11-20T13:13:51.112Z,56.40
2018-11-20T13:16:41.845Z,56.40
2018-11-20T13:19:29.401Z,56.30
2018-11-20T13:22:15.299Z,54.80
2018-11-20T13:24:57.924Z,56.50
2018-11-20T13:27:39.130Z,57.00
2018-11-20T13:30:45.718Z,57.20
2018-11-20T13:33:30.257Z,59.70
2018-11-20T13:36:32.250Z,60.10
2018-11-20T13:39:18.037Z,59.10
2018-11-20T13:42:01.397Z,56.80
2018-11-20T13:44:46.139Z,57.50
2018-11-20T13:47:35.711Z,57.70
2018-11-20T13:50:22.901Z,59.50
2018-11-20T13:53:11.872Z,59.60
2018-11-20T13:55:56.091Z,61.10
2018-11-20T13:58:43.865Z,58.50
2018-11-20T14:01:29.960Z,58.50
2018-11-20T14:04:12.695Z,59.00
2018-11-20T14:07:00.288Z,61.00
2018-11-20T14:10:00.526Z,59.30
2018-11-20T14:12:48.056Z,59.40
2018-11-20T14:15:38.157Z,59.50
2018-11-20T14:18:23.951Z,59.90
2018-11-20T14:21:06.341Z,60.40
2018-11-20T14:23:57.256Z,60.30
2018-11-20T14:26:35.891Z,60.70
2018-11-20T14:29:19.926Z,60.20
2018-11-20T14:31:57.917Z,61.10
2018-11-20T14:34:48.529Z,61.10
2018-11-20T14:37:26.953Z,62.00
2018-11-20T14:40:32.920Z,61.30
2018-11-20T14:43:12.262Z,60.90
2018-11-20T14:45:59.244Z,61.20
2018-11-20T14:48:49.769Z,61.00
2018-11-20T14:51:36.815Z,61.10
2018-11-20T14:54:26.869Z,61.50
2018-11-20T14:57:12.846Z,61.80
2018-11-20T15:00:10.620Z,61.50
2018-11-20T15:03:05.120Z,62.00
2018-11-20T15:05:48.646Z,62.00
2018-11-20T15:08:45.168Z,62.30
2018-11-20T15:11:31.161Z,61.90
2018-11-20T15:14:18.784Z,62.40
2018-11-20T15:17:05.122Z,62.10
2018-11-20T15:19:51.924Z,62.10
2018-11-20T15:22:34.220Z,62.40
2018-11-20T15:25:12.103Z,62.90
2018-11-20T15:27:51.864Z,63.20
2018-11-20T15:30:41.438Z,62.80
2018-11-20T15:33:26.208Z,62.90
2018-11-20T15:36:31.226Z,63.40
2018-11-20T15:39:26.273Z,64.00
2018-11-20T15:42:17.160Z,63.20
2018-11-20T15:44:59.161Z,63.50
2018-11-20T15:47:39.853Z,63.20
2018-11-20T15:50:37.196Z,63.70
2018-11-20T15:53:36.913Z,64.10
2018-11-20T15:56:23.987Z,63.80
2018-11-20T15:59:09.846Z,63.50
2018-11-20T16:01:55.263Z,64.00
2018-11-20T16:04:40.883Z,64.60
2018-11-20T16:07:37.506Z,64.10
2018-11-20T16:10:25.776Z,65.60
2018-11-20T16:13:12.404Z,65.60
2018-11-20T16:15:59.413Z,64.80
2018-11-20T16:18:55.634Z,65.30
2018-11-20T16:21:41.744Z,65.10
2018-11-20T16:24:27.814Z,64.60
2018-11-20T16:27:27.761Z,65.40
2018-11-20T16:30:17.911Z,65.30
2018-11-20T16:33:11.992Z,65.20
2018-11-20T16:36:01.028Z,65.90
2018-11-20T16:38:44.604Z,65.90
2018-11-20T16:41:31.874Z,65.80
2018-11-20T16:44:19.060Z,66.50
2018-11-20T16:47:05.127Z,65.80
2018-11-20T16:49:51.181Z,66.20
2018-11-20T16:52:39.069Z,66.70
2018-11-20T16:55:39.092Z,66.30
2018-11-20T16:58:36.149Z,66.50
2018-11-20T17:01:23.158Z,65.80
2018-11-20T17:04:13.643Z,66.50
2018-11-20T17:06:59.847Z,66.20
2018-11-20T17:10:02.660Z,65.30
2018-11-20T17:12:47.844Z,65.40
2018-11-20T17:18:33.212Z,66.00
2018-11-20T17:21:25.578Z,65.60
2018-11-20T17:24:16.059Z,65.70
2018-11-20T17:27:02.564Z,65.80
2018-11-20T17:29:54.498Z,65.50
2018-11-20T17:32:50.929Z,65.90
2018-11-20T17:35:38.755Z,65.60
2018-11-20T17:38:41.153Z,65.30
2018-11-20T17:41:44.251Z,65.10
2018-11-20T17:44:26.859Z,65.20
2018-11-20T17:47:17.053Z,64.80
2018-11-20T17:49:58.216Z,64.90
2018-11-20T17:52:52.045Z,65.10
2018-11-20T17:55:51.829Z,65.20
2018-11-20T17:58:34.777Z,65.10
2018-11-20T18:01:21.054Z,65.30
2018-11-20T18:04:20.451Z,65.50
2018-11-20T18:07:10.736Z,65.10
2018-11-20T18:09:56.523Z,65.30
2018-11-20T18:15:33.914Z,64.70
2018-11-20T18:18:32.909Z,64.70
2018-11-20T18:21:20.658Z,65.40
2018-11-20T18:23:59.277Z,65.90
2018-11-20T18:26:46.313Z,65.70
2018-11-20T18:29:32.387Z,65.80
2018-11-20T18:32:18.169Z,65.50
2018-11-20T18:35:14.744Z,65.00
2018-11-20T18:38:11.254Z,65.50
2018-11-20T18:40:57.821Z,65.50
2018-11-20T18:43:54.970Z,65.60
2018-11-20T18:49:35.616Z,65.30
2018-11-20T18:52:23.742Z,65.60
2018-11-20T18:57:57.199Z,65.70
2018-11-20T19:00:43.689Z,65.40
2018-11-20T19:03:29.884Z,65.30
2018-11-20T19:06:36.056Z,65.50
2018-11-20T19:09:24.229Z,65.80
2018-11-20T19:12:08.984Z,65.40
2018-11-20T19:14:55.372Z,65.50
2018-11-20T19:17:49.050Z,65.30
2018-11-20T19:20:39.316Z,65.10
2018-11-20T19:23:45.094Z,65.30
2018-11-20T19:26:31.645Z,65.60
2018-11-20T19:29:34.062Z,65.80
2018-11-20T19:32:19.930Z,65.70
2018-11-20T19:35:08.080Z,65.80
2018-11-20T19:38:01.269Z,66.00
2018-11-20T19:41:05.887Z,65.70
2018-11-20T19:43:48.204Z,65.70
2018-11-20T19:46:35.408Z,65.80
2018-11-20T19:49:24.185Z,65.60
2018-11-20T19:55:16.758Z,65.70
2018-11-20T19:58:22.631Z,65.80
2018-11-20T20:01:04.198Z,66.40
2018-11-20T20:03:56.530Z,66.10
2018-11-20T20:06:47.849Z,66.20
2018-11-20T20:12:30.073Z,65.80
2018-11-20T20:15:33.210Z,66.80
2018-11-20T20:18:33.081Z,68.60
2018-11-20T20:21:36.796Z,67.60
2018-11-20T20:24:33.019Z,68.00
2018-11-20T20:27:22.226Z,66.30
2018-11-20T20:30:24.857Z,65.80
2018-11-20T20:33:12.325Z,66.00
2018-11-20T20:36:11.311Z,65.90
2018-11-20T20:41:55.594Z,66.60
2018-11-20T20:47:29.089Z,66.40
2018-11-20T20:50:17.049Z,66.40
2018-11-20T20:53:03.575Z,66.30
2018-11-20T20:55:50.949Z,67.30
2018-11-20T20:58:28.760Z,66.60
2018-11-20T21:01:25.748Z,67.00
2018-11-20T21:04:05.564Z,67.30
2018-11-20T21:07:07.844Z,67.10
2018-11-20T21:09:55.167Z,66.90
2018-11-20T21:12:42.169Z,66.60
2018-11-20T21:15:44.675Z,66.50
2018-11-20T21:18:42.540Z,66.90
2018-11-20T21:21:22.220Z,67.10
2018-11-20T21:24:14.730Z,67.10
2018-11-20T21:27:05.455Z,67.40
2018-11-20T21:29:52.365Z,67.70
2018-11-20T21:32:30.762Z,67.70
2018-11-20T21:35:20.826Z,68.80
2018-11-20T21:38:06.174Z,67.50
2018-11-20T21:40:52.505Z,66.80
2018-11-20T21:43:51.614Z,66.50
2018-11-20T21:46:29.986Z,66.60
2018-11-20T21:49:32.918Z,66.40
2018-11-20T21:57:47.297Z,65.70
2018-11-20T22:00:39.277Z,65.90
2018-11-20T22:03:22.945Z,66.20
2018-11-20T22:06:08.844Z,66.10
2018-11-20T22:11:51.723Z,66.20
2018-11-20T22:14:37.801Z,66.30
2018-11-20T22:20:13.829Z,66.90
2018-11-20T22:22:59.666Z,67.30
2018-11-20T22:25:35.927Z,67.00
2018-11-20T22:45:17.708Z,67.10
2018-11-20T22:53:34.684Z,67.00
2018-11-20T23:12:21.560Z,66.40
2018-11-20T23:22:13.463Z,67.10
2018-11-20T23:27:09.944Z,67.40
2018-11-20T23:29:37.830Z,67.70
2018-11-20T23:32:05.770Z,67.60
2018-11-20T23:37:01.383Z,67.70
